sensor_id;sensor_type;location;lat;lon;timestamp;P1;durP1;ratioP1;P2;durP2;ratioP2
23270;SDS011;11804;51.118;17.058;2024-01-30T00:00:23;5.20;;;2.90;;
23270;SDS011;11804;51.118;17.058;2024-01-30T00:02:50;5.20;;;2.37;;
23270;SDS011;11804;51.118;17.058;2024-01-30T00:05:17;8.30;;;2.70;;
23270;SDS011;11804;51.118;17.058;2024-01-30T00:07:45;4.47;;;2.20;;
23270;SDS011;11804;51.118;17.058;2024-01-30T00:10:12;7.67;;;2.93;;
23270;SDS011;11804;51.118;17.058;2024-01-30T00:12:39;10.83;;;2.87;;
23270;SDS011;11804;51.118;17.058;2024-01-30T00:15:07;3.77;;;2.07;;
23270;SDS011;11804;51.118;17.058;2024-01-30T00:17:36;12.20;;;3.53;;
23270;SDS011;11804;51.118;17.058;2024-01-30T00:20:04;5.67;;;2.77;;
23270;SDS011;11804;51.118;17.058;2024-01-30T00:22:31;7.27;;;3.50;;
23270;SDS011;11804;51.118;17.058;2024-01-30T00:24:59;7.60;;;3.20;;
23270;SDS011;11804;51.118;17.058;2024-01-30T00:27:27;8.63;;;3.47;;
23270;SDS011;11804;51.118;17.058;2024-01-30T00:29:54;8.57;;;3.23;;
23270;SDS011;11804;51.118;17.058;2024-01-30T00:32:21;6.23;;;2.43;;
23270;SDS011;11804;51.118;17.058;2024-01-30T00:34:49;9.63;;;3.83;;
23270;SDS011;11804;51.118;17.058;2024-01-30T00:37:17;11.00;;;3.20;;
23270;SDS011;11804;51.118;17.058;2024-01-30T00:39:45;3.83;;;2.20;;
23270;SDS011;11804;51.118;17.058;2024-01-30T00:42:12;7.77;;;2.67;;
23270;SDS011;11804;51.118;17.058;2024-01-30T00:44:39;6.47;;;3.30;;
23270;SDS011;11804;51.118;17.058;2024-01-30T00:47:07;8.37;;;3.17;;
23270;SDS011;11804;51.118;17.058;2024-01-30T00:49:34;5.30;;;2.33;;
23270;SDS011;11804;51.118;17.058;2024-01-30T00:52:01;6.40;;;2.23;;
23270;SDS011;11804;51.118;17.058;2024-01-30T00:54:29;7.30;;;3.03;;
23270;SDS011;11804;51.118;17.058;2024-01-30T00:56:56;5.70;;;2.80;;
23270;SDS011;11804;51.118;17.058;2024-01-30T00:59:23;7.03;;;2.07;;
23270;SDS011;11804;51.118;17.058;2024-01-30T01:01:51;3.90;;;2.53;;
23270;SDS011;11804;51.118;17.058;2024-01-30T01:04:18;9.67;;;2.87;;
23270;SDS011;11804;51.118;17.058;2024-01-30T01:06:47;3.07;;;2.30;;
23270;SDS011;11804;51.118;17.058;2024-01-30T01:09:14;4.47;;;1.70;;
23270;SDS011;11804;51.118;17.058;2024-01-30T01:11:42;5.33;;;2.43;;
23270;SDS011;11804;51.118;17.058;2024-01-30T01:14:09;4.57;;;2.50;;
23270;SDS011;11804;51.118;17.058;2024-01-30T01:16:36;8.30;;;2.90;;
23270;SDS011;11804;51.118;17.058;2024-01-30T01:19:03;3.90;;;2.13;;
23270;SDS011;11804;51.118;17.058;2024-01-30T01:21:31;7.70;;;2.53;;
23270;SDS011;11804;51.118;17.058;2024-01-30T01:23:59;3.20;;;2.27;;
23270;SDS011;11804;51.118;17.058;2024-01-30T01:26:26;6.33;;;2.10;;
23270;SDS011;11804;51.118;17.058;2024-01-30T01:28:54;12.50;;;2.83;;
23270;SDS011;11804;51.118;17.058;2024-01-30T01:31:21;4.93;;;2.53;;
23270;SDS011;11804;51.118;17.058;2024-01-30T01:33:50;5.30;;;2.00;;
23270;SDS011;11804;51.118;17.058;2024-01-30T01:36:17;8.83;;;2.03;;
23270;SDS011;11804;51.118;17.058;2024-01-30T01:38:45;4.60;;;2.03;;
23270;SDS011;11804;51.118;17.058;2024-01-30T01:41:12;8.23;;;2.60;;
23270;SDS011;11804;51.118;17.058;2024-01-30T01:43:39;4.30;;;2.40;;
23270;SDS011;11804;51.118;17.058;2024-01-30T01:46:07;3.93;;;2.20;;
23270;SDS011;11804;51.118;17.058;2024-01-30T01:48:35;4.90;;;2.27;;
23270;SDS011;11804;51.118;17.058;2024-01-30T01:51:05;4.80;;;2.60;;
23270;SDS011;11804;51.118;17.058;2024-01-30T01:53:32;10.67;;;3.60;;
23270;SDS011;11804;51.118;17.058;2024-01-30T01:55:59;7.77;;;2.10;;
23270;SDS011;11804;51.118;17.058;2024-01-30T01:58:27;6.27;;;2.37;;
23270;SDS011;11804;51.118;17.058;2024-01-30T02:00:56;5.53;;;2.23;;
23270;SDS011;11804;51.118;17.058;2024-01-30T02:03:25;6.17;;;2.10;;
23270;SDS011;11804;51.118;17.058;2024-01-30T02:05:52;5.77;;;2.27;;
23270;SDS011;11804;51.118;17.058;2024-01-30T02:08:19;4.10;;;2.43;;
23270;SDS011;11804;51.118;17.058;2024-01-30T02:10:47;5.13;;;2.60;;
23270;SDS011;11804;51.118;17.058;2024-01-30T02:13:14;4.77;;;2.20;;
23270;SDS011;11804;51.118;17.058;2024-01-30T02:15:41;3.53;;;2.00;;
23270;SDS011;11804;51.118;17.058;2024-01-30T02:18:09;4.77;;;1.90;;
23270;SDS011;11804;51.118;17.058;2024-01-30T02:20:36;6.33;;;2.90;;
23270;SDS011;11804;51.118;17.058;2024-01-30T02:23:05;5.80;;;2.70;;
23270;SDS011;11804;51.118;17.058;2024-01-30T02:25:38;5.67;;;2.30;;
23270;SDS011;11804;51.118;17.058;2024-01-30T02:28:03;5.13;;;2.67;;
23270;SDS011;11804;51.118;17.058;2024-01-30T02:30:30;5.00;;;2.53;;
23270;SDS011;11804;51.118;17.058;2024-01-30T02:32:58;8.27;;;2.10;;
23270;SDS011;11804;51.118;17.058;2024-01-30T02:35:25;4.30;;;2.00;;
23270;SDS011;11804;51.118;17.058;2024-01-30T02:37:52;6.33;;;2.37;;
23270;SDS011;11804;51.118;17.058;2024-01-30T02:40:19;9.10;;;3.00;;
23270;SDS011;11804;51.118;17.058;2024-01-30T02:42:47;5.37;;;2.50;;
23270;SDS011;11804;51.118;17.058;2024-01-30T02:45:14;12.77;;;2.63;;
23270;SDS011;11804;51.118;17.058;2024-01-30T02:47:41;8.27;;;2.30;;
23270;SDS011;11804;51.118;17.058;2024-01-30T02:50:09;7.00;;;2.97;;
23270;SDS011;11804;51.118;17.058;2024-01-30T02:52:37;6.03;;;2.83;;
23270;SDS011;11804;51.118;17.058;2024-01-30T02:55:04;7.60;;;2.90;;
23270;SDS011;11804;51.118;17.058;2024-01-30T02:57:32;5.40;;;1.93;;
23270;SDS011;11804;51.118;17.058;2024-01-30T03:00:00;7.00;;;2.80;;
23270;SDS011;11804;51.118;17.058;2024-01-30T03:02:29;3.80;;;2.00;;
23270;SDS011;11804;51.118;17.058;2024-01-30T03:04:56;7.30;;;2.23;;
23270;SDS011;11804;51.118;17.058;2024-01-30T03:07:24;8.37;;;3.00;;
23270;SDS011;11804;51.118;17.058;2024-01-30T03:09:51;3.97;;;2.70;;
23270;SDS011;11804;51.118;17.058;2024-01-30T03:12:19;3.97;;;2.33;;
23270;SDS011;11804;51.118;17.058;2024-01-30T03:14:46;7.63;;;2.37;;
23270;SDS011;11804;51.118;17.058;2024-01-30T03:17:13;4.57;;;1.77;;
23270;SDS011;11804;51.118;17.058;2024-01-30T03:19:41;9.40;;;2.60;;
23270;SDS011;11804;51.118;17.058;2024-01-30T03:22:08;6.80;;;2.90;;
23270;SDS011;11804;51.118;17.058;2024-01-30T03:24:35;7.20;;;3.17;;
23270;SDS011;11804;51.118;17.058;2024-01-30T03:27:03;3.47;;;2.20;;
23270;SDS011;11804;51.118;17.058;2024-01-30T03:29:30;7.83;;;2.83;;
23270;SDS011;11804;51.118;17.058;2024-01-30T03:31:57;4.20;;;2.13;;
23270;SDS011;11804;51.118;17.058;2024-01-30T03:34:24;4.67;;;1.97;;
23270;SDS011;11804;51.118;17.058;2024-01-30T03:36:52;6.67;;;2.63;;
23270;SDS011;11804;51.118;17.058;2024-01-30T03:39:19;4.53;;;2.23;;
23270;SDS011;11804;51.118;17.058;2024-01-30T03:41:46;6.17;;;1.83;;
23270;SDS011;11804;51.118;17.058;2024-01-30T03:44:13;10.03;;;3.03;;
23270;SDS011;11804;51.118;17.058;2024-01-30T03:46:41;4.30;;;2.17;;
23270;SDS011;11804;51.118;17.058;2024-01-30T03:49:09;4.53;;;2.33;;
23270;SDS011;11804;51.118;17.058;2024-01-30T03:51:36;6.13;;;3.33;;
23270;SDS011;11804;51.118;17.058;2024-01-30T03:54:04;3.83;;;1.87;;
23270;SDS011;11804;51.118;17.058;2024-01-30T03:56:31;7.57;;;2.93;;
23270;SDS011;11804;51.118;17.058;2024-01-30T03:58:58;8.80;;;2.27;;
23270;SDS011;11804;51.118;17.058;2024-01-30T04:01:27;4.33;;;2.47;;
23270;SDS011;11804;51.118;17.058;2024-01-30T04:03:54;5.77;;;3.23;;
23270;SDS011;11804;51.118;17.058;2024-01-30T04:06:21;5.70;;;2.50;;
23270;SDS011;11804;51.118;17.058;2024-01-30T04:08:49;5.90;;;2.53;;
23270;SDS011;11804;51.118;17.058;2024-01-30T04:11:18;4.97;;;2.70;;
23270;SDS011;11804;51.118;17.058;2024-01-30T04:13:46;3.17;;;2.10;;
23270;SDS011;11804;51.118;17.058;2024-01-30T04:16:20;5.57;;;2.83;;
23270;SDS011;11804;51.118;17.058;2024-01-30T04:18:51;4.03;;;1.93;;
23270;SDS011;11804;51.118;17.058;2024-01-30T04:21:18;4.27;;;2.30;;
23270;SDS011;11804;51.118;17.058;2024-01-30T04:23:47;3.33;;;2.60;;
23270;SDS011;11804;51.118;17.058;2024-01-30T04:26:15;5.33;;;2.43;;
23270;SDS011;11804;51.118;17.058;2024-01-30T04:28:43;4.67;;;2.77;;
23270;SDS011;11804;51.118;17.058;2024-01-30T04:31:11;7.40;;;2.63;;
23270;SDS011;11804;51.118;17.058;2024-01-30T04:33:38;7.30;;;2.67;;
23270;SDS011;11804;51.118;17.058;2024-01-30T04:36:08;5.80;;;2.90;;
23270;SDS011;11804;51.118;17.058;2024-01-30T04:38:38;4.47;;;2.20;;
23270;SDS011;11804;51.118;17.058;2024-01-30T04:41:06;5.53;;;3.37;;
23270;SDS011;11804;51.118;17.058;2024-01-30T04:43:33;3.57;;;2.57;;
23270;SDS011;11804;51.118;17.058;2024-01-30T04:46:00;5.10;;;2.43;;
23270;SDS011;11804;51.118;17.058;2024-01-30T04:48:28;5.70;;;2.43;;
23270;SDS011;11804;51.118;17.058;2024-01-30T04:50:55;4.70;;;2.30;;
23270;SDS011;11804;51.118;17.058;2024-01-30T04:53:23;8.00;;;3.17;;
23270;SDS011;11804;51.118;17.058;2024-01-30T04:55:50;10.70;;;3.10;;
23270;SDS011;11804;51.118;17.058;2024-01-30T04:58:17;6.73;;;3.17;;
23270;SDS011;11804;51.118;17.058;2024-01-30T05:00:45;4.87;;;3.57;;
23270;SDS011;11804;51.118;17.058;2024-01-30T05:03:18;7.37;;;2.50;;
23270;SDS011;11804;51.118;17.058;2024-01-30T05:05:43;13.77;;;3.67;;
23270;SDS011;11804;51.118;17.058;2024-01-30T05:08:13;7.10;;;3.20;;
23270;SDS011;11804;51.118;17.058;2024-01-30T05:10:41;6.87;;;3.33;;
23270;SDS011;11804;51.118;17.058;2024-01-30T05:13:08;9.90;;;3.47;;
23270;SDS011;11804;51.118;17.058;2024-01-30T05:15:35;11.90;;;3.97;;
23270;SDS011;11804;51.118;17.058;2024-01-30T05:18:03;8.57;;;3.13;;
23270;SDS011;11804;51.118;17.058;2024-01-30T05:20:30;9.70;;;2.77;;
23270;SDS011;11804;51.118;17.058;2024-01-30T05:22:57;7.30;;;2.80;;
23270;SDS011;11804;51.118;17.058;2024-01-30T05:25:24;12.20;;;3.10;;
23270;SDS011;11804;51.118;17.058;2024-01-30T05:27:52;7.00;;;2.70;;
23270;SDS011;11804;51.118;17.058;2024-01-30T05:30:19;7.97;;;3.87;;
23270;SDS011;11804;51.118;17.058;2024-01-30T05:32:46;6.03;;;3.27;;
23270;SDS011;11804;51.118;17.058;2024-01-30T05:35:15;11.53;;;4.57;;
23270;SDS011;11804;51.118;17.058;2024-01-30T05:37:42;11.63;;;4.60;;
23270;SDS011;11804;51.118;17.058;2024-01-30T05:40:10;7.53;;;3.17;;
23270;SDS011;11804;51.118;17.058;2024-01-30T05:42:37;9.13;;;4.53;;
23270;SDS011;11804;51.118;17.058;2024-01-30T05:45:05;10.10;;;4.07;;
23270;SDS011;11804;51.118;17.058;2024-01-30T05:47:32;5.60;;;3.33;;
23270;SDS011;11804;51.118;17.058;2024-01-30T05:49:59;13.10;;;3.97;;
23270;SDS011;11804;51.118;17.058;2024-01-30T05:52:27;6.60;;;4.17;;
23270;SDS011;11804;51.118;17.058;2024-01-30T05:54:54;7.10;;;3.23;;
23270;SDS011;11804;51.118;17.058;2024-01-30T05:57:23;7.10;;;3.40;;
23270;SDS011;11804;51.118;17.058;2024-01-30T05:59:53;10.00;;;3.00;;
23270;SDS011;11804;51.118;17.058;2024-01-30T06:02:20;9.43;;;3.03;;
23270;SDS011;11804;51.118;17.058;2024-01-30T06:04:48;5.70;;;2.13;;
23270;SDS011;11804;51.118;17.058;2024-01-30T06:07:15;8.33;;;2.83;;
23270;SDS011;11804;51.118;17.058;2024-01-30T06:09:43;10.40;;;3.30;;
23270;SDS011;11804;51.118;17.058;2024-01-30T06:12:12;6.80;;;3.00;;
23270;SDS011;11804;51.118;17.058;2024-01-30T06:14:39;13.87;;;2.83;;
23270;SDS011;11804;51.118;17.058;2024-01-30T06:17:08;5.93;;;3.00;;
23270;SDS011;11804;51.118;17.058;2024-01-30T06:19:38;3.57;;;2.70;;
23270;SDS011;11804;51.118;17.058;2024-01-30T06:22:05;6.03;;;3.53;;
23270;SDS011;11804;51.118;17.058;2024-01-30T06:24:32;8.80;;;3.50;;
23270;SDS011;11804;51.118;17.058;2024-01-30T06:27:01;5.43;;;2.80;;
23270;SDS011;11804;51.118;17.058;2024-01-30T06:29:28;6.23;;;3.43;;
23270;SDS011;11804;51.118;17.058;2024-01-30T06:31:56;7.47;;;2.40;;
23270;SDS011;11804;51.118;17.058;2024-01-30T06:34:23;3.90;;;2.73;;
23270;SDS011;11804;51.118;17.058;2024-01-30T06:36:52;5.63;;;2.67;;
23270;SDS011;11804;51.118;17.058;2024-01-30T06:39:19;7.27;;;3.67;;
23270;SDS011;11804;51.118;17.058;2024-01-30T06:41:47;13.07;;;3.80;;
23270;SDS011;11804;51.118;17.058;2024-01-30T06:44:16;4.40;;;2.90;;
23270;SDS011;11804;51.118;17.058;2024-01-30T06:46:43;5.67;;;3.17;;
23270;SDS011;11804;51.118;17.058;2024-01-30T06:49:10;5.20;;;2.23;;
23270;SDS011;11804;51.118;17.058;2024-01-30T06:51:38;7.40;;;2.60;;
23270;SDS011;11804;51.118;17.058;2024-01-30T06:54:05;4.63;;;2.00;;
23270;SDS011;11804;51.118;17.058;2024-01-30T06:56:37;5.23;;;1.87;;
23270;SDS011;11804;51.118;17.058;2024-01-30T06:59:02;5.03;;;1.70;;
23270;SDS011;11804;51.118;17.058;2024-01-30T07:01:35;5.40;;;1.83;;
23270;SDS011;11804;51.118;17.058;2024-01-30T07:04:00;4.30;;;2.30;;
23270;SDS011;11804;51.118;17.058;2024-01-30T07:06:27;4.53;;;2.03;;
23270;SDS011;11804;51.118;17.058;2024-01-30T07:08:54;3.63;;;1.80;;
23270;SDS011;11804;51.118;17.058;2024-01-30T07:11:21;4.23;;;2.43;;
23270;SDS011;11804;51.118;17.058;2024-01-30T07:13:50;4.40;;;2.50;;
23270;SDS011;11804;51.118;17.058;2024-01-30T07:16:17;6.40;;;2.10;;
23270;SDS011;11804;51.118;17.058;2024-01-30T07:18:44;5.17;;;2.37;;
23270;SDS011;11804;51.118;17.058;2024-01-30T07:21:12;6.47;;;3.70;;
23270;SDS011;11804;51.118;17.058;2024-01-30T07:23:39;5.43;;;2.50;;
23270;SDS011;11804;51.118;17.058;2024-01-30T07:26:08;4.83;;;3.00;;
23270;SDS011;11804;51.118;17.058;2024-01-30T07:28:35;7.20;;;2.73;;
23270;SDS011;11804;51.118;17.058;2024-01-30T07:31:03;6.50;;;2.97;;
23270;SDS011;11804;51.118;17.058;2024-01-30T07:33:30;5.17;;;3.03;;
23270;SDS011;11804;51.118;17.058;2024-01-30T07:35:57;7.97;;;3.50;;
23270;SDS011;11804;51.118;17.058;2024-01-30T07:38:25;7.60;;;2.83;;
23270;SDS011;11804;51.118;17.058;2024-01-30T07:40:52;5.67;;;3.53;;
23270;SDS011;11804;51.118;17.058;2024-01-30T07:43:19;7.47;;;4.13;;
23270;SDS011;11804;51.118;17.058;2024-01-30T07:45:47;7.70;;;4.60;;
23270;SDS011;11804;51.118;17.058;2024-01-30T07:48:14;9.87;;;3.80;;
23270;SDS011;11804;51.118;17.058;2024-01-30T07:50:41;8.60;;;4.27;;
23270;SDS011;11804;51.118;17.058;2024-01-30T07:53:08;19.47;;;4.87;;
23270;SDS011;11804;51.118;17.058;2024-01-30T07:55:36;9.60;;;3.87;;
23270;SDS011;11804;51.118;17.058;2024-01-30T07:58:03;10.60;;;4.57;;
23270;SDS011;11804;51.118;17.058;2024-01-30T08:00:32;8.23;;;4.27;;
23270;SDS011;11804;51.118;17.058;2024-01-30T08:02:59;8.53;;;4.03;;
23270;SDS011;11804;51.118;17.058;2024-01-30T08:05:28;7.37;;;4.50;;
23270;SDS011;11804;51.118;17.058;2024-01-30T08:07:55;7.87;;;4.17;;
23270;SDS011;11804;51.118;17.058;2024-01-30T08:10:23;10.13;;;4.63;;
23270;SDS011;11804;51.118;17.058;2024-01-30T08:12:50;9.30;;;4.63;;
23270;SDS011;11804;51.118;17.058;2024-01-30T08:15:17;7.70;;;3.23;;
23270;SDS011;11804;51.118;17.058;2024-01-30T08:17:44;7.40;;;3.40;;
23270;SDS011;11804;51.118;17.058;2024-01-30T08:20:12;9.00;;;3.63;;
23270;SDS011;11804;51.118;17.058;2024-01-30T08:22:40;8.33;;;3.37;;
23270;SDS011;11804;51.118;17.058;2024-01-30T08:25:07;8.20;;;3.17;;
23270;SDS011;11804;51.118;17.058;2024-01-30T08:27:36;7.13;;;3.17;;
23270;SDS011;11804;51.118;17.058;2024-01-30T08:30:05;8.20;;;3.20;;
23270;SDS011;11804;51.118;17.058;2024-01-30T08:32:33;6.73;;;3.33;;
23270;SDS011;11804;51.118;17.058;2024-01-30T08:35:00;6.90;;;3.13;;
23270;SDS011;11804;51.118;17.058;2024-01-30T08:37:31;6.90;;;2.97;;
23270;SDS011;11804;51.118;17.058;2024-01-30T08:39:58;6.87;;;3.10;;
23270;SDS011;11804;51.118;17.058;2024-01-30T08:42:26;6.53;;;3.20;;
23270;SDS011;11804;51.118;17.058;2024-01-30T08:44:53;9.93;;;3.53;;
23270;SDS011;11804;51.118;17.058;2024-01-30T08:47:22;5.97;;;2.67;;
23270;SDS011;11804;51.118;17.058;2024-01-30T08:49:49;5.20;;;3.03;;
23270;SDS011;11804;51.118;17.058;2024-01-30T08:52:16;18.10;;;2.93;;
23270;SDS011;11804;51.118;17.058;2024-01-30T08:54:44;4.63;;;2.60;;
23270;SDS011;11804;51.118;17.058;2024-01-30T08:57:11;11.53;;;2.30;;
23270;SDS011;11804;51.118;17.058;2024-01-30T08:59:39;9.00;;;2.73;;
23270;SDS011;11804;51.118;17.058;2024-01-30T09:02:07;5.03;;;2.30;;
23270;SDS011;11804;51.118;17.058;2024-01-30T09:04:36;5.60;;;2.67;;
23270;SDS011;11804;51.118;17.058;2024-01-30T09:07:03;6.03;;;2.50;;
23270;SDS011;11804;51.118;17.058;2024-01-30T09:09:32;4.73;;;2.70;;
23270;SDS011;11804;51.118;17.058;2024-01-30T09:11:59;12.10;;;2.80;;
23270;SDS011;11804;51.118;17.058;2024-01-30T09:14:28;6.77;;;2.57;;
23270;SDS011;11804;51.118;17.058;2024-01-30T09:16:56;6.67;;;2.83;;
23270;SDS011;11804;51.118;17.058;2024-01-30T09:19:23;8.73;;;3.10;;
23270;SDS011;11804;51.118;17.058;2024-01-30T09:21:50;5.70;;;2.70;;
23270;SDS011;11804;51.118;17.058;2024-01-30T09:24:17;7.00;;;2.83;;
23270;SDS011;11804;51.118;17.058;2024-01-30T09:26:45;4.77;;;2.53;;
23270;SDS011;11804;51.118;17.058;2024-01-30T09:29:12;4.67;;;2.87;;
23270;SDS011;11804;51.118;17.058;2024-01-30T09:31:42;6.57;;;2.60;;
23270;SDS011;11804;51.118;17.058;2024-01-30T09:34:08;3.87;;;2.27;;
23270;SDS011;11804;51.118;17.058;2024-01-30T09:36:35;7.07;;;2.93;;
23270;SDS011;11804;51.118;17.058;2024-01-30T09:39:03;4.67;;;2.63;;
23270;SDS011;11804;51.118;17.058;2024-01-30T09:41:37;6.83;;;2.07;;
23270;SDS011;11804;51.118;17.058;2024-01-30T09:44:03;6.27;;;2.47;;
23270;SDS011;11804;51.118;17.058;2024-01-30T09:46:33;7.47;;;2.33;;
23270;SDS011;11804;51.118;17.058;2024-01-30T09:49:01;5.60;;;2.47;;
23270;SDS011;11804;51.118;17.058;2024-01-30T09:51:29;7.87;;;2.40;;
23270;SDS011;11804;51.118;17.058;2024-01-30T09:53:57;6.03;;;2.60;;
23270;SDS011;11804;51.118;17.058;2024-01-30T09:56:24;4.72;;;2.47;;
23270;SDS011;11804;51.118;17.058;2024-01-30T09:58:52;4.75;;;2.45;;
23270;SDS011;11804;51.118;17.058;2024-01-30T10:01:19;4.67;;;2.50;;
23270;SDS011;11804;51.118;17.058;2024-01-30T10:03:50;5.67;;;2.63;;
23270;SDS011;11804;51.118;17.058;2024-01-30T10:06:16;5.95;;;2.40;;
23270;SDS011;11804;51.118;17.058;2024-01-30T10:08:44;5.43;;;2.37;;
23270;SDS011;11804;51.118;17.058;2024-01-30T10:11:11;6.37;;;2.40;;
23270;SDS011;11804;51.118;17.058;2024-01-30T10:13:39;3.62;;;2.60;;
23270;SDS011;11804;51.118;17.058;2024-01-30T10:16:06;7.08;;;2.98;;
23270;SDS011;11804;51.118;17.058;2024-01-30T10:18:33;4.60;;;2.20;;
23270;SDS011;11804;51.118;17.058;2024-01-30T10:21:01;5.67;;;2.55;;
23270;SDS011;11804;51.118;17.058;2024-01-30T10:23:29;4.57;;;2.50;;
23270;SDS011;11804;51.118;17.058;2024-01-30T10:25:56;5.70;;;3.10;;
23270;SDS011;11804;51.118;17.058;2024-01-30T10:28:26;6.45;;;3.27;;
23270;SDS011;11804;51.118;17.058;2024-01-30T10:31:03;5.80;;;3.87;;
23270;SDS011;11804;51.118;17.058;2024-01-30T10:33:29;6.35;;;3.30;;
23270;SDS011;11804;51.118;17.058;2024-01-30T10:36:01;3.95;;;2.45;;
23270;SDS011;11804;51.118;17.058;2024-01-30T10:38:24;7.30;;;3.15;;
23270;SDS011;11804;51.118;17.058;2024-01-30T10:40:53;4.20;;;2.22;;
23270;SDS011;11804;51.118;17.058;2024-01-30T10:43:22;5.50;;;2.67;;
23270;SDS011;11804;51.118;17.058;2024-01-30T10:45:50;4.15;;;2.20;;
23270;SDS011;11804;51.118;17.058;2024-01-30T10:48:19;3.27;;;2.10;;
23270;SDS011;11804;51.118;17.058;2024-01-30T10:50:50;6.60;;;2.20;;
23270;SDS011;11804;51.118;17.058;2024-01-30T10:53:20;5.50;;;2.60;;
23270;SDS011;11804;51.118;17.058;2024-01-30T10:55:48;4.57;;;2.33;;
23270;SDS011;11804;51.118;17.058;2024-01-30T10:58:17;3.72;;;1.92;;
23270;SDS011;11804;51.118;17.058;2024-01-30T11:00:45;4.03;;;2.10;;
23270;SDS011;11804;51.118;17.058;2024-01-30T11:03:13;4.78;;;1.98;;
23270;SDS011;11804;51.118;17.058;2024-01-30T11:05:43;3.77;;;1.87;;
23270;SDS011;11804;51.118;17.058;2024-01-30T11:08:22;7.78;;;2.12;;
23270;SDS011;11804;51.118;17.058;2024-01-30T11:10:48;3.10;;;1.82;;
23270;SDS011;11804;51.118;17.058;2024-01-30T11:13:16;6.45;;;2.72;;
23270;SDS011;11804;51.118;17.058;2024-01-30T11:15:43;6.10;;;3.20;;
23270;SDS011;11804;51.118;17.058;2024-01-30T11:18:12;6.90;;;2.42;;
23270;SDS011;11804;51.118;17.058;2024-01-30T11:20:41;4.67;;;2.33;;
23270;SDS011;11804;51.118;17.058;2024-01-30T11:23:11;5.40;;;2.30;;
23270;SDS011;11804;51.118;17.058;2024-01-30T11:25:39;6.00;;;2.50;;
23270;SDS011;11804;51.118;17.058;2024-01-30T11:28:06;3.40;;;2.20;;
23270;SDS011;11804;51.118;17.058;2024-01-30T11:30:35;4.90;;;2.20;;
23270;SDS011;11804;51.118;17.058;2024-01-30T11:33:03;4.73;;;2.07;;
23270;SDS011;11804;51.118;17.058;2024-01-30T11:38:06;5.67;;;1.93;;
23270;SDS011;11804;51.118;17.058;2024-01-30T11:40:36;4.03;;;1.87;;
23270;SDS011;11804;51.118;17.058;2024-01-30T11:43:05;4.93;;;2.30;;
23270;SDS011;11804;51.118;17.058;2024-01-30T11:45:33;6.80;;;2.60;;
23270;SDS011;11804;51.118;17.058;2024-01-30T11:48:01;4.20;;;1.90;;
23270;SDS011;11804;51.118;17.058;2024-01-30T11:50:31;4.67;;;2.40;;
23270;SDS011;11804;51.118;17.058;2024-01-30T11:53:01;4.50;;;2.03;;
23270;SDS011;11804;51.118;17.058;2024-01-30T11:55:29;4.73;;;2.30;;
23270;SDS011;11804;51.118;17.058;2024-01-30T12:00:35;4.73;;;2.23;;
23270;SDS011;11804;51.118;17.058;2024-01-30T12:03:02;3.60;;;1.80;;
23270;SDS011;11804;51.118;17.058;2024-01-30T12:05:31;4.03;;;1.77;;
23270;SDS011;11804;51.118;17.058;2024-01-30T12:07:59;5.83;;;2.87;;
23270;SDS011;11804;51.118;17.058;2024-01-30T12:10:26;8.40;;;2.83;;
23270;SDS011;11804;51.118;17.058;2024-01-30T12:12:53;4.40;;;2.17;;
23270;SDS011;11804;51.118;17.058;2024-01-30T12:15:22;5.57;;;2.37;;
23270;SDS011;11804;51.118;17.058;2024-01-30T12:17:49;6.83;;;2.27;;
23270;SDS011;11804;51.118;17.058;2024-01-30T12:20:17;3.70;;;2.10;;
23270;SDS011;11804;51.118;17.058;2024-01-30T12:22:46;4.37;;;2.10;;
23270;SDS011;11804;51.118;17.058;2024-01-30T12:25:14;5.63;;;2.03;;
23270;SDS011;11804;51.118;17.058;2024-01-30T12:27:43;5.23;;;1.97;;
23270;SDS011;11804;51.118;17.058;2024-01-30T12:30:11;4.87;;;2.47;;
23270;SDS011;11804;51.118;17.058;2024-01-30T12:32:43;3.67;;;1.73;;
23270;SDS011;11804;51.118;17.058;2024-01-30T12:35:11;2.97;;;1.67;;
23270;SDS011;11804;51.118;17.058;2024-01-30T12:37:40;4.77;;;2.53;;
23270;SDS011;11804;51.118;17.058;2024-01-30T12:40:07;4.20;;;1.77;;
23270;SDS011;11804;51.118;17.058;2024-01-30T12:42:35;5.73;;;2.10;;
23270;SDS011;11804;51.118;17.058;2024-01-30T12:45:03;3.57;;;1.80;;
23270;SDS011;11804;51.118;17.058;2024-01-30T12:47:34;4.97;;;2.00;;
23270;SDS011;11804;51.118;17.058;2024-01-30T12:50:02;5.53;;;2.60;;
23270;SDS011;11804;51.118;17.058;2024-01-30T12:52:29;4.37;;;2.47;;
23270;SDS011;11804;51.118;17.058;2024-01-30T12:54:56;7.10;;;2.77;;
23270;SDS011;11804;51.118;17.058;2024-01-30T12:57:24;4.43;;;1.87;;
23270;SDS011;11804;51.118;17.058;2024-01-30T12:59:51;4.63;;;2.67;;
23270;SDS011;11804;51.118;17.058;2024-01-30T13:02:19;9.00;;;3.07;;
23270;SDS011;11804;51.118;17.058;2024-01-30T13:04:46;8.43;;;2.70;;
23270;SDS011;11804;51.118;17.058;2024-01-30T13:07:14;8.20;;;2.20;;
23270;SDS011;11804;51.118;17.058;2024-01-30T13:09:41;8.07;;;2.43;;
23270;SDS011;11804;51.118;17.058;2024-01-30T13:12:09;4.70;;;2.37;;
23270;SDS011;11804;51.118;17.058;2024-01-30T13:14:36;4.33;;;2.07;;
23270;SDS011;11804;51.118;17.058;2024-01-30T13:17:03;7.70;;;2.63;;
23270;SDS011;11804;51.118;17.058;2024-01-30T13:19:35;8.30;;;3.60;;
23270;SDS011;11804;51.118;17.058;2024-01-30T13:22:18;5.13;;;2.90;;
23270;SDS011;11804;51.118;17.058;2024-01-30T13:24:51;3.67;;;2.17;;
23270;SDS011;11804;51.118;17.058;2024-01-30T13:27:17;5.47;;;2.07;;
23270;SDS011;11804;51.118;17.058;2024-01-30T13:29:47;7.00;;;2.80;;
23270;SDS011;11804;51.118;17.058;2024-01-30T13:32:15;5.40;;;2.67;;
23270;SDS011;11804;51.118;17.058;2024-01-30T13:34:42;5.20;;;2.67;;
23270;SDS011;11804;51.118;17.058;2024-01-30T13:37:10;6.80;;;3.30;;
23270;SDS011;11804;51.118;17.058;2024-01-30T13:39:42;4.87;;;2.43;;
23270;SDS011;11804;51.118;17.058;2024-01-30T13:42:07;7.13;;;3.43;;
23270;SDS011;11804;51.118;17.058;2024-01-30T13:44:35;9.27;;;2.97;;
23270;SDS011;11804;51.118;17.058;2024-01-30T13:47:03;3.83;;;2.30;;
23270;SDS011;11804;51.118;17.058;2024-01-30T13:49:30;5.43;;;2.60;;
23270;SDS011;11804;51.118;17.058;2024-01-30T13:51:58;3.50;;;2.03;;
23270;SDS011;11804;51.118;17.058;2024-01-30T13:54:25;6.90;;;2.57;;
23270;SDS011;11804;51.118;17.058;2024-01-30T13:56:52;5.80;;;2.30;;
23270;SDS011;11804;51.118;17.058;2024-01-30T13:59:20;7.60;;;2.50;;
23270;SDS011;11804;51.118;17.058;2024-01-30T14:01:49;5.23;;;2.70;;
23270;SDS011;11804;51.118;17.058;2024-01-30T14:04:16;5.30;;;2.43;;
23270;SDS011;11804;51.118;17.058;2024-01-30T14:06:43;8.97;;;2.40;;
23270;SDS011;11804;51.118;17.058;2024-01-30T14:09:11;4.77;;;2.57;;
23270;SDS011;11804;51.118;17.058;2024-01-30T14:11:42;8.83;;;2.80;;
23270;SDS011;11804;51.118;17.058;2024-01-30T14:14:10;5.93;;;2.20;;
23270;SDS011;11804;51.118;17.058;2024-01-30T14:16:37;6.57;;;2.73;;
23270;SDS011;11804;51.118;17.058;2024-01-30T14:19:04;13.93;;;2.47;;
23270;SDS011;11804;51.118;17.058;2024-01-30T14:21:32;5.80;;;2.53;;
23270;SDS011;11804;51.118;17.058;2024-01-30T14:24:02;6.67;;;2.60;;
23270;SDS011;11804;51.118;17.058;2024-01-30T14:26:28;5.87;;;2.60;;
23270;SDS011;11804;51.118;17.058;2024-01-30T14:28:56;5.50;;;2.47;;
23270;SDS011;11804;51.118;17.058;2024-01-30T14:31:23;6.03;;;2.83;;
23270;SDS011;11804;51.118;17.058;2024-01-30T14:33:50;8.10;;;3.47;;
23270;SDS011;11804;51.118;17.058;2024-01-30T14:36:18;11.60;;;3.63;;
23270;SDS011;11804;51.118;17.058;2024-01-30T14:38:46;11.83;;;4.07;;
23270;SDS011;11804;51.118;17.058;2024-01-30T14:41:14;7.67;;;4.17;;